Time;durP1;ratioP1;P1;durP2;ratioP2;P2;SDS_P1;SDS_P2;PMS_P1;PMS_P2;Temp;Humidity;BMP_temperature;BMP_pressure;BME280_temperature;BME280_humidity;BME280_pressure;Samples;Min_cycle;Max_cycle;Signal;HPM_P1;HPM_P2
2022/05/05 00:01:54;;;;;;;2.03;1.30;;;21.70;43.00;;;;;;4946253;28;20050;-58
2022/05/05 00:04:21;;;;;;;2.28;1.30;;;21.60;42.90;;;;;;4944786;28;20512;-57
2022/05/05 00:06:48;;;;;;;2.30;1.48;;;21.60;42.90;;;;;;4945694;28;20035;-57
2022/05/05 00:09:13;;;;;;;2.50;1.50;;;21.60;42.80;;;;;;4942936;29;20051;-58
2022/05/05 00:14:23;;;;;;;3.05;1.48;;;21.60;42.70;;;;;;4943631;29;20065;-60
2022/05/05 00:17:09;;;;;;;2.90;1.52;;;21.60;42.70;;;;;;4944425;29;20315;-58
2022/05/05 00:19:38;;;;;;;3.15;1.85;;;21.60;43.30;;;;;;4944181;29;20051;-58
2022/05/05 00:22:06;;;;;;;2.60;1.60;;;21.50;42.50;;;;;;4944154;29;20062;-57
2022/05/05 00:24:32;;;;;;;2.58;1.65;;;21.60;42.50;;;;;;4944622;29;20046;-57
2022/05/05 00:26:58;;;;;;;3.67;1.60;;;21.50;42.40;;;;;;4945831;28;20167;-58
2022/05/05 00:29:24;;;;;;;2.50;1.30;;;21.50;42.40;;;;;;4943518;29;20054;-57
2022/05/05 00:31:50;;;;;;;3.22;1.50;;;21.50;42.40;;;;;;4944722;28;20066;-58
2022/05/05 00:34:16;;;;;;;3.47;1.45;;;21.50;42.30;;;;;;4944550;28;20149;-59
2022/05/05 00:36:42;;;;;;;3.35;1.50;;;21.50;42.30;;;;;;4944910;28;20051;-57
2022/05/05 00:39:08;;;;;;;3.17;1.50;;;21.50;42.30;;;;;;4944167;28;20419;-57
2022/05/05 00:41:45;;;;;;;2.45;1.50;;;21.40;42.20;;;;;;4944230;29;20443;-61
2022/05/05 00:44:12;;;;;;;2.85;1.55;;;21.40;42.10;;;;;;4943421;28;20043;-57
2022/05/05 00:46:38;;;;;;;2.97;1.33;;;21.40;42.10;;;;;;4945013;28;20047;-59
2022/05/05 00:49:04;;;;;;;3.22;1.65;;;21.40;42.00;;;;;;4943874;28;20098;-57
2022/05/05 00:51:30;;;;;;;1.90;1.27;;;21.40;42.00;;;;;;4944759;28;20078;-57
2022/05/05 00:53:56;;;;;;;1.75;1.20;;;21.40;42.00;;;;;;4944381;29;20499;-58
2022/05/05 00:56:23;;;;;;;3.15;1.70;;;21.40;42.00;;;;;;4943853;29;20126;-57
2022/05/05 00:58:49;;;;;;;2.10;1.20;;;21.40;42.10;;;;;;4943443;29;20496;-58
2022/05/05 01:01:18;;;;;;;1.90;1.65;;;21.40;42.00;;;;;;4943881;29;20074;-57
2022/05/05 01:03:44;;;;;;;2.47;1.33;;;21.40;41.90;;;;;;4944923;28;20081;-58
2022/05/05 01:06:11;;;;;;;1.95;1.50;;;21.40;41.90;;;;;;4944581;28;20396;-58
2022/05/05 01:08:37;;;;;;;1.70;1.23;;;21.40;41.90;;;;;;4947111;28;20043;-58
2022/05/05 01:11:03;;;;;;;1.95;1.30;;;21.40;41.90;;;;;;4947289;28;20037;-58
2022/05/05 01:13:30;;;;;;;1.88;1.30;;;21.30;41.90;;;;;;4946881;28;20035;-57
2022/05/05 01:15:56;;;;;;;3.38;1.27;;;21.30;41.90;;;;;;4947812;28;20062;-58
2022/05/05 01:18:22;;;;;;;3.08;1.58;;;21.30;41.80;;;;;;4948674;29;20577;-57
2022/05/05 01:20:54;;;;;;;2.75;1.35;;;21.30;41.80;;;;;;4962182;28;20405;-59
2022/05/05 01:23:21;;;;;;;2.38;1.42;;;21.30;41.80;;;;;;4946815;29;20047;-57
2022/05/05 01:28:33;;;;;;;2.20;1.40;;;21.30;41.90;;;;;;4947381;29;20114;-58
2022/05/05 01:30:59;;;;;;;2.42;1.50;;;21.30;41.90;;;;;;4947132;28;20106;-58
2022/05/05 01:33:27;;;;;;;2.30;1.45;;;21.20;41.80;;;;;;4939004;29;20458;-58
2022/05/05 01:35:54;;;;;;;2.35;1.48;;;21.30;41.80;;;;;;4947120;29;20086;-59
2022/05/05 01:38:25;;;;;;;2.22;1.50;;;21.20;41.70;;;;;;4947241;29;20670;-57
2022/05/05 01:40:50;;;;;;;;;;;21.20;41.70;;;;;;4944138;28;20367;-58
2022/05/05 01:43:18;;;;;;;3.83;1.50;;;21.20;41.60;;;;;;4948190;28;19918;-57
2022/05/05 01:45:45;;;;;;;2.05;1.40;;;21.20;41.90;;;;;;4946136;29;20027;-58
2022/05/05 01:48:11;;;;;;;2.13;1.48;;;21.20;41.80;;;;;;4947719;29;20039;-59
2022/05/05 01:50:37;;;;;;;2.80;1.50;;;21.20;41.70;;;;;;4947505;28;20043;-58
2022/05/05 01:53:03;;;;;;;2.53;1.60;;;21.10;41.60;;;;;;4948326;28;20047;-57
2022/05/05 01:55:30;;;;;;;2.17;1.40;;;21.20;41.70;;;;;;4945897;28;20043;-56
2022/05/05 01:57:57;;;;;;;2.13;1.50;;;21.20;41.70;;;;;;4947487;28;20047;-57
2022/05/05 02:00:23;;;;;;;2.30;1.55;;;21.20;41.60;;;;;;4942612;28;20443;-57
2022/05/05 02:02:48;;;;;;;3.40;1.90;;;21.10;41.50;;;;;;4943264;29;20094;-59
2022/05/05 02:05:14;;;;;;;3.45;1.60;;;21.10;41.50;;;;;;4946596;28;20119;-57
2022/05/05 02:07:41;;;;;;;2.40;1.80;;;21.10;41.50;;;;;;4944847;28;20382;-58
2022/05/05 02:10:09;;;;;;;2.03;1.50;;;21.10;41.60;;;;;;4944758;28;20037;-59
2022/05/05 02:12:38;;;;;;;2.35;1.77;;;21.10;41.50;;;;;;4947218;29;20051;-57
2022/05/05 02:15:08;;;;;;;2.72;1.42;;;21.10;41.50;;;;;;4947731;29;20035;-58
2022/05/05 02:17:38;;;;;;;2.27;1.37;;;21.10;41.50;;;;;;4946746;29;20959;-58
2022/05/05 02:20:06;;;;;;;4.00;1.60;;;21.10;41.40;;;;;;4940236;28;20063;-57
2022/05/05 02:22:31;;;;;;;3.03;1.67;;;21.10;41.40;;;;;;4945806;28;20126;-58
2022/05/05 02:24:57;;;;;;;2.50;1.50;;;21.10;41.40;;;;;;4946005;28;22392;-58
2022/05/05 02:27:23;;;;;;;3.45;1.75;;;21.10;41.30;;;;;;4946520;28;20039;-57
2022/05/05 02:29:50;;;;;;;2.47;1.60;;;21.10;41.40;;;;;;4948547;28;20054;-58
2022/05/05 02:32:16;;;;;;;1.92;1.35;;;21.00;41.30;;;;;;4944780;28;20039;-57
2022/05/05 02:34:43;;;;;;;2.88;1.65;;;21.00;41.30;;;;;;4947799;28;20531;-58
2022/05/05 02:39:53;;;;;;;4.07;1.80;;;21.00;41.30;;;;;;4947691;29;20074;-58
2022/05/05 02:42:20;;;;;;;3.08;1.80;;;21.00;41.20;;;;;;4944950;29;20062;-59
2022/05/05 02:44:46;;;;;;;2.33;1.65;;;21.00;41.30;;;;;;4948421;28;20070;-58
2022/05/05 02:47:12;;;;;;;3.08;1.75;;;21.00;41.20;;;;;;4942975;28;20440;-59
2022/05/05 02:49:37;;;;;;;1.95;1.60;;;21.00;41.20;;;;;;4946828;28;20363;-57
2022/05/05 02:52:04;;;;;;;2.30;1.42;;;21.00;41.20;;;;;;4944440;29;20051;-58
2022/05/05 02:54:50;;;;;;;2.85;1.45;;;21.00;41.20;;;;;;4945308;28;20512;-59
2022/05/05 02:57:20;;;;;;;3.05;1.73;;;21.00;41.10;;;;;;4945937;28;20106;-58
2022/05/05 02:59:47;;;;;;;3.10;1.45;;;20.90;41.00;;;;;;4946775;29;20051;-59
2022/05/05 03:02:13;;;;;;;1.98;1.48;;;21.00;41.10;;;;;;4944598;28;20082;-57
2022/05/05 03:04:39;;;;;;;2.78;1.52;;;21.00;41.00;;;;;;4945753;28;20186;-59
2022/05/05 03:07:05;;;;;;;3.03;1.52;;;20.90;41.70;;;;;;4945192;28;20051;-57
2022/05/05 03:09:30;;;;;;;2.22;1.42;;;20.90;41.00;;;;;;4945985;28;20046;-57
2022/05/05 03:11:56;;;;;;;2.63;1.50;;;20.90;40.90;;;;;;4949941;28;20073;-58
2022/05/05 03:14:21;;;;;;;2.67;1.60;;;20.90;41.00;;;;;;4947400;28;20055;-58
2022/05/05 03:16:47;;;;;;;2.90;1.90;;;20.90;41.00;;;;;;4946306;28;20046;-58
2022/05/05 03:19:13;;;;;;;3.03;1.50;;;20.90;40.90;;;;;;4946479;28;20043;-57
2022/05/05 03:21:38;;;;;;;2.97;1.60;;;20.90;40.90;;;;;;4944733;29;20031;-58
2022/05/05 03:24:05;;;;;;;2.90;1.95;;;20.90;40.90;;;;;;4946162;28;20078;-57
2022/05/05 03:26:30;;;;;;;3.47;1.80;;;20.90;40.90;;;;;;4937980;29;20517;-58
2022/05/05 03:28:56;;;;;;;3.33;1.65;;;20.90;40.90;;;;;;4946054;28;20051;-57
2022/05/05 03:31:22;;;;;;;2.40;1.70;;;20.90;40.90;;;;;;4945789;28;20055;-59
2022/05/05 03:33:48;;;;;;;2.75;1.52;;;20.90;40.90;;;;;;4945680;28;20066;-58
2022/05/05 03:36:14;;;;;;;2.78;1.65;;;20.90;40.90;;;;;;4945746;28;20055;-56
2022/05/05 03:38:39;;;;;;;3.03;1.80;;;20.90;40.80;;;;;;4944785;29;20142;-58
2022/05/05 03:41:05;;;;;;;2.50;1.60;;;20.80;40.70;;;;;;4946717;29;20118;-58
2022/05/05 03:43:32;;;;;;;2.97;1.52;;;20.80;40.80;;;;;;4945604;28;20047;-57
2022/05/05 03:45:57;;;;;;;2.35;1.50;;;20.90;40.80;;;;;;4944220;29;20070;-60
2022/05/05 03:48:23;;;;;;;2.58;1.92;;;20.80;40.70;;;;;;4945534;29;20071;-57
2022/05/05 03:50:49;;;;;;;4.07;1.63;;;20.80;40.70;;;;;;4945748;28;20039;-58
2022/05/05 03:53:14;;;;;;;2.88;1.77;;;20.80;40.70;;;;;;4944953;28;20094;-58
2022/05/05 03:55:40;;;;;;;2.65;2.17;;;20.80;40.70;;;;;;4946552;28;20186;-57
2022/05/05 03:58:05;;;;;;;2.97;1.95;;;20.80;40.70;;;;;;4946179;29;20456;-57
2022/05/05 04:00:31;;;;;;;2.45;1.75;;;20.80;40.70;;;;;;4943127;28;20413;-58
2022/05/05 04:05:40;;;;;;;3.22;1.90;;;20.80;40.70;;;;;;4943881;29;20046;-58
2022/05/05 04:08:06;;;;;;;6.53;2.03;;;20.80;40.70;;;;;;4946131;28;20051;-58
2022/05/05 04:10:32;;;;;;;2.28;1.80;;;20.80;40.60;;;;;;4945470;28;20043;-59
2022/05/05 04:12:58;;;;;;;3.20;1.95;;;20.80;40.70;;;;;;4945695;28;20047;-59
2022/05/05 04:15:24;;;;;;;2.70;1.95;;;20.80;40.70;;;;;;4945209;28;20555;-58
2022/05/05 04:17:50;;;;;;;3.05;1.60;;;20.80;40.60;;;;;;4945561;28;20039;-57
2022/05/05 04:20:17;;;;;;;2.10;1.88;;;20.80;40.60;;;;;;4939191;29;20055;-59
2022/05/05 04:22:43;;;;;;;3.42;2.17;;;20.80;40.70;;;;;;4946083;29;20039;-58
2022/05/05 04:25:09;;;;;;;3.30;2.20;;;20.70;40.60;;;;;;4944927;28;20059;-58
2022/05/05 04:27:39;;;;;;;2.63;1.90;;;20.80;40.60;;;;;;4945264;28;20042;-57
2022/05/05 04:30:06;;;;;;;2.88;1.63;;;20.70;40.60;;;;;;4945725;28;20035;-57
2022/05/05 04:32:32;;;;;;;2.65;1.80;;;20.70;40.60;;;;;;4945701;28;20071;-57
2022/05/05 04:34:58;;;;;;;3.22;1.90;;;20.70;40.60;;;;;;4944620;28;20069;-58
2022/05/05 04:37:24;;;;;;;2.70;1.75;;;20.70;40.60;;;;;;4945895;28;20047;-58
2022/05/05 04:39:49;;;;;;;2.75;2.00;;;20.70;40.60;;;;;;4944369;28;20047;-57
2022/05/05 04:42:17;;;;;;;2.65;1.95;;;20.70;40.60;;;;;;4945656;28;20066;-58
2022/05/05 04:44:43;;;;;;;3.92;1.90;;;20.70;40.60;;;;;;4945857;29;20067;-58
2022/05/05 04:47:08;;;;;;;1.98;1.77;;;20.70;40.60;;;;;;4946611;28;20074;-58
2022/05/05 04:49:34;;;;;;;2.25;1.80;;;20.70;40.60;;;;;;4942611;29;20587;-58
2022/05/05 04:52:00;;;;;;;2.72;2.10;;;20.70;40.60;;;;;;4945852;28;20399;-57
2022/05/05 04:54:25;;;;;;;2.53;2.03;;;20.70;40.50;;;;;;4945211;28;20146;-60
2022/05/05 04:56:51;;;;;;;3.30;1.88;;;20.70;40.50;;;;;;4944838;28;20051;-60
2022/05/05 04:59:16;;;;;;;3.88;1.92;;;20.70;40.60;;;;;;4934547;28;20039;-60
2022/05/05 05:01:42;;;;;;;2.38;1.88;;;20.60;40.50;;;;;;4945877;28;20114;-58
2022/05/05 05:04:07;;;;;;;5.10;2.33;;;20.60;40.50;;;;;;4943643;28;20090;-60
2022/05/05 05:06:34;;;;;;;2.20;1.70;;;20.70;40.50;;;;;;4943607;28;20054;-58
2022/05/05 05:09:00;;;;;;;3.08;2.00;;;20.60;40.50;;;;;;4944579;28;20047;-58
2022/05/05 05:11:25;;;;;;;4.90;2.00;;;20.60;40.50;;;;;;4943083;29;20865;-59
2022/05/05 05:13:51;;;;;;;4.13;1.90;;;20.60;40.50;;;;;;4946307;28;20042;-57
2022/05/05 05:16:16;;;;;;;3.05;1.90;;;20.60;40.50;;;;;;4943366;28;20658;-58
2022/05/05 05:18:42;;;;;;;2.80;2.25;;;20.60;40.60;;;;;;4944410;28;20043;-58
2022/05/05 05:21:08;;;;;;;2.97;2.42;;;20.60;40.60;;;;;;4943531;28;20455;-58
2022/05/05 05:23:34;;;;;;;2.70;1.90;;;20.60;40.50;;;;;;4944669;29;20364;-58
2022/05/05 05:25:59;;;;;;;4.25;2.28;;;20.60;40.50;;;;;;4942818;28;20527;-58
2022/05/05 05:28:25;;;;;;;3.85;2.40;;;20.60;40.50;;;;;;4944270;28;20128;-58
2022/05/05 05:30:51;;;;;;;4.45;2.38;;;20.60;40.50;;;;;;4943038;28;20512;-58
2022/05/05 05:33:17;;;;;;;5.78;2.40;;;20.60;40.50;;;;;;4943464;28;20055;-59
2022/05/05 05:35:46;;;;;;;4.07;2.40;;;20.60;41.30;;;;;;4943532;28;20428;-58
2022/05/05 05:38:19;;;;;;;4.75;2.50;;;20.60;40.60;;;;;;4942664;28;20392;-58
2022/05/05 05:40:44;;;;;;;3.35;2.30;;;20.60;40.60;;;;;;4944438;29;20094;-61
2022/05/05 05:43:10;;;;;;;3.50;2.15;;;20.60;40.60;;;;;;4946457;28;20733;-60
2022/05/05 05:45:35;;;;;;;2.00;1.75;;;20.60;40.50;;;;;;4943721;28;20043;-60
2022/05/05 05:48:01;;;;;;;3.47;2.10;;;20.60;40.60;;;;;;4945437;28;20047;-60
2022/05/05 05:50:28;;;;;;;4.30;2.30;;;20.60;40.70;;;;;;4944487;28;20057;-60
2022/05/05 05:52:54;;;;;;;4.25;2.35;;;20.60;40.70;;;;;;4943968;28;20035;-59
2022/05/05 05:55:20;;;;;;;2.88;2.00;;;20.60;40.70;;;;;;4939507;29;20357;-60
2022/05/05 05:57:45;;;;;;;4.57;1.90;;;20.70;40.90;;;;;;4946639;28;20046;-60
2022/05/05 06:00:12;;;;;;;2.20;1.80;;;20.60;41.00;;;;;;4952421;28;20059;-58
2022/05/05 06:05:21;;;;;;;6.18;2.72;;;20.70;41.20;;;;;;4948377;29;20075;-60
2022/05/05 06:07:48;;;;;;;3.83;2.40;;;20.70;41.10;;;;;;4940699;29;20127;-60
2022/05/05 06:10:16;;;;;;;4.72;2.45;;;20.70;41.10;;;;;;4946929;29;20074;-61
2022/05/05 06:12:42;;;;;;;4.82;2.30;;;20.70;41.30;;;;;;4947021;29;20039;-58
2022/05/05 06:15:08;;;;;;;3.15;2.35;;;20.70;41.20;;;;;;4947429;28;20039;-60
2022/05/05 06:17:34;;;;;;;3.55;2.28;;;20.80;41.40;;;;;;4946266;28;20142;-60
2022/05/05 06:20:00;;;;;;;5.35;2.78;;;20.80;41.30;;;;;;4944865;28;20475;-58
2022/05/05 06:22:26;;;;;;;3.35;2.67;;;20.70;41.30;;;;;;4946147;29;20134;-58
2022/05/05 06:24:51;;;;;;;4.60;2.58;;;20.70;41.40;;;;;;4947371;29;20042;-59
2022/05/05 06:27:17;;;;;;;4.85;2.03;;;20.70;41.60;;;;;;4946713;29;20040;-58
2022/05/05 06:29:42;;;;;;;3.25;2.45;;;20.70;41.70;;;;;;4947721;28;20047;-58
2022/05/05 06:32:08;;;;;;;5.00;2.20;;;20.80;41.80;;;;;;4947455;28;20492;-58
2022/05/05 06:34:34;;;;;;;4.82;2.50;;;20.80;41.80;;;;;;4945140;29;20646;-59
2022/05/05 06:36:59;;;;;;;5.35;2.72;;;20.80;41.90;;;;;;4945832;28;20074;-60
2022/05/05 06:39:25;;;;;;;6.45;2.17;;;20.80;41.90;;;;;;4948145;29;20105;-58
2022/05/05 06:41:50;;;;;;;4.13;2.03;;;20.80;42.00;;;;;;4947412;28;20042;-58
2022/05/05 06:44:16;;;;;;;6.15;2.40;;;20.80;42.00;;;;;;4947827;28;20106;-59
2022/05/05 06:46:42;;;;;;;5.20;2.22;;;20.80;41.90;;;;;;4946984;28;20090;-59
2022/05/05 06:49:08;;;;;;;3.42;2.00;;;20.80;42.00;;;;;;4944930;29;20078;-60
2022/05/05 06:51:33;;;;;;;4.53;1.98;;;20.80;41.90;;;;;;4946944;28;20043;-58
2022/05/05 06:53:59;;;;;;;5.97;2.47;;;20.80;41.90;;;;;;4944960;28;20439;-59
2022/05/05 06:56:25;;;;;;;4.35;2.20;;;20.80;41.90;;;;;;4946752;29;20051;-59
2022/05/05 06:58:50;;;;;;;3.38;2.08;;;20.80;42.00;;;;;;4947395;29;20193;-60
2022/05/05 07:06:44;;;;;;;4.72;1.88;;;20.80;42.10;;;;;;4946587;28;20062;-58
2022/05/05 07:11:54;;;;;;;3.15;1.92;;;20.80;42.20;;;;;;4946926;28;20047;-61
2022/05/05 07:14:20;;;;;;;3.22;1.70;;;20.80;42.20;;;;;;4945116;29;20054;-62
2022/05/05 07:16:45;;;;;;;4.45;2.08;;;20.80;42.30;;;;;;4947270;28;20075;-64
2022/05/05 07:19:11;;;;;;;2.58;1.98;;;20.80;42.20;;;;;;4946210;28;20491;-61
2022/05/05 07:21:37;;;;;;;5.18;2.35;;;20.80;42.30;;;;;;4942705;28;20138;-61
2022/05/05 07:24:04;;;;;;;4.03;2.00;;;20.80;43.00;;;;;;4959284;28;20035;-58
2022/05/05 07:26:29;;;;;;;4.90;2.13;;;20.80;42.30;;;;;;4946613;28;20452;-59
2022/05/05 07:28:55;;;;;;;7.38;2.40;;;20.80;42.10;;;;;;4944926;28;20047;-58
2022/05/05 07:31:20;;;;;;;4.22;2.10;;;20.80;42.10;;;;;;4945775;28;20078;-59
2022/05/05 07:33:46;;;;;;;4.13;2.10;;;20.80;42.10;;;;;;4944214;28;20050;-59
2022/05/05 07:36:11;;;;;;;6.22;2.60;;;20.80;42.20;;;;;;4945339;28;20059;-59
2022/05/05 07:38:37;;;;;;;4.90;1.77;;;20.80;42.20;;;;;;4945545;28;20480;-58
2022/05/05 07:41:03;;;;;;;5.60;2.08;;;20.80;42.50;;;;;;4945768;28;20035;-58
2022/05/05 07:43:29;;;;;;;5.05;2.30;;;20.80;42.40;;;;;;4942718;29;20410;-57
2022/05/05 07:45:54;;;;;;;4.20;2.13;;;20.80;42.50;;;;;;4942692;28;20035;-59
2022/05/05 07:48:20;;;;;;;5.75;2.25;;;20.80;42.50;;;;;;4942097;29;20047;-59
2022/05/05 07:50:49;;;;;;;6.88;2.58;;;20.80;42.50;;;;;;4944602;28;20499;-57
2022/05/05 07:53:15;;;;;;;7.53;3.22;;;20.80;42.40;;;;;;4943638;29;21078;-58
2022/05/05 07:55:41;;;;;;;4.57;2.47;;;20.80;42.50;;;;;;4945694;29;20175;-58
2022/05/05 07:58:06;;;;;;;5.88;2.88;;;20.80;42.70;;;;;;4945778;28;20462;-57
2022/05/05 08:00:32;;;;;;;4.97;2.40;;;20.80;42.80;;;;;;4944317;28;20609;-57
2022/05/05 08:02:58;;;;;;;4.53;2.40;;;20.80;42.70;;;;;;4945316;28;20074;-57
2022/05/05 08:05:23;;;;;;;5.40;2.47;;;20.80;42.70;;;;;;4944437;28;20452;-58
2022/05/05 08:07:51;;;;;;;5.57;2.42;;;20.80;42.50;;;;;;4943963;28;20614;-58
2022/05/05 08:10:18;;;;;;;3.90;2.30;;;20.80;42.50;;;;;;4940100;29;20047;-58
2022/05/05 08:12:45;;;;;;;4.88;2.17;;;20.80;42.40;;;;;;4941251;29;21077;-59
2022/05/05 08:15:12;;;;;;;3.78;2.05;;;20.80;42.50;;;;;;4943125;28;20484;-58
2022/05/05 08:17:38;;;;;;;7.82;3.13;;;20.80;42.40;;;;;;4942604;28;20047;-57
2022/05/05 08:20:05;;;;;;;5.38;2.92;;;20.80;42.00;;;;;;4944466;28;20546;-57
2022/05/05 08:22:31;;;;;;;3.33;2.20;;;20.80;42.10;;;;;;4943812;29;20039;-57
2022/05/05 08:30:25;;;;;;;4.80;3.05;;;20.80;42.00;;;;;;4942050;29;20097;-60
2022/05/05 08:32:51;;;;;;;8.32;4.03;;;20.80;41.60;;;;;;4945237;28;20427;-57
2022/05/05 08:35:17;;;;;;;8.50;4.10;;;20.80;41.20;;;;;;4943624;28;20053;-58
2022/05/05 08:37:42;;;;;;;5.10;2.80;;;20.80;40.80;;;;;;4944716;28;20403;-59
2022/05/05 08:40:10;;;;;;;8.57;3.97;;;20.70;40.90;;;;;;4935650;29;20607;-57
2022/05/05 08:42:36;;;;;;;10.98;4.55;;;20.70;41.40;;;;;;4944631;28;20045;-58
2022/05/05 08:45:01;;;;;;;7.50;3.70;;;20.70;41.40;;;;;;4944289;28;20408;-58
2022/05/05 08:47:31;;;;;;;5.05;3.90;;;20.70;41.00;;;;;;4944953;28;20043;-58
2022/05/05 08:49:58;;;;;;;5.40;3.20;;;20.70;41.50;;;;;;4944286;28;20083;-57
2022/05/05 08:52:25;;;;;;;8.18;3.67;;;20.70;41.00;;;;;;4944145;28;20043;-58
2022/05/05 08:54:51;;;;;;;7.45;2.83;;;20.70;41.00;;;;;;4943131;29;20134;-59
2022/05/05 08:57:17;;;;;;;4.63;2.88;;;20.70;41.00;;;;;;4946695;28;20122;-58
2022/05/05 08:59:43;;;;;;;3.40;2.92;;;20.70;41.10;;;;;;4944290;28;20126;-59
2022/05/05 09:02:10;;;;;;;5.32;3.00;;;20.80;41.00;;;;;;4945308;28;20144;-58
2022/05/05 09:04:36;;;;;;;8.93;3.28;;;20.80;41.00;;;;;;4945400;28;20062;-59
2022/05/05 09:07:01;;;;;;;4.38;2.83;;;20.80;41.00;;;;;;4944965;28;20568;-58
2022/05/05 09:09:30;;;;;;;5.03;2.88;;;20.80;41.10;;;;;;4944800;28;20051;-57
2022/05/05 09:12:10;;;;;;;5.28;2.40;;;20.70;41.30;;;;;;4944031;28;20051;-58
2022/05/05 09:14:55;;;;;;;6.82;2.33;;;20.80;41.60;;;;;;4944033;28;20047;-59
2022/05/05 09:17:23;;;;;;;3.67;2.40;;;20.80;41.80;;;;;;4944978;28;20043;-59
2022/05/05 09:19:53;;;;;;;3.92;2.35;;;20.80;41.90;;;;;;4945131;28;20047;-58
2022/05/05 09:22:28;;;;;;;5.07;2.70;;;20.80;42.00;;;;;;4945092;28;20093;-59
2022/05/05 09:24:56;;;;;;;2.95;2.13;;;20.80;42.00;;;;;;4944693;29;20042;-59
2022/05/05 09:27:33;;;;;;;4.03;2.65;;;20.80;42.00;;;;;;4944246;29;20147;-58
2022/05/05 09:30:06;;;;;;;3.97;2.13;;;20.80;42.10;;;;;;4948178;29;20051;-57
2022/05/05 09:32:43;;;;;;;3.80;2.33;;;20.80;42.10;;;;;;4948334;29;20059;-58
2022/05/05 09:35:19;;;;;;;4.53;2.28;;;20.80;42.10;;;;;;4942047;28;20094;-58
2022/05/05 09:37:49;;;;;;;3.70;2.20;;;20.80;42.10;;;;;;4947896;29;20415;-58
2022/05/05 09:40:20;;;;;;;5.45;2.55;;;20.80;42.20;;;;;;4945741;28;20043;-59
2022/05/05 09:42:49;;;;;;;5.72;2.05;;;20.80;42.20;;;;;;4946709;28;20035;-59
2022/05/05 09:45:20;;;;;;;2.92;2.08;;;20.80;42.20;;;;;;4945779;29;20114;-59
2022/05/05 09:47:47;;;;;;;;;;;20.80;42.20;;;;;;4949781;28;20047;-59
2022/05/05 09:50:13;;;;;;;4.72;3.05;;;20.80;42.30;;;;;;4949192;29;20638;-58
2022/05/05 09:58:16;;;;;;;8.07;4.60;;;20.80;42.00;;;;;;4947274;28;20105;-59
2022/05/05 10:00:55;;;;;;;5.32;2.97;;;20.70;41.50;;;;;;4947426;29;20050;-58
2022/05/05 10:04:05;;;;;;;5.10;4.30;;;20.70;41.50;;;;;;4948446;28;20058;-58
2022/05/05 10:06:36;;;;;;;5.80;5.05;;;20.70;41.50;;;;;;4947740;28;20078;-57
2022/05/05 10:09:07;;;;;;;5.32;3.90;;;20.70;41.40;;;;;;4949913;29;20050;-61
2022/05/05 10:11:33;;;;;;;;;;;20.70;41.30;;;;;;4948104;29;20050;-59
2022/05/05 10:14:04;;;;;;;7.55;4.78;;;20.70;40.80;;;;;;4949402;29;19923;-58
2022/05/05 10:16:33;;;;;;;9.98;3.90;;;20.60;41.10;;;;;;4945283;29;20086;-60
2022/05/05 10:18:59;;;;;;;5.85;3.50;;;20.60;41.00;;;;;;4947719;29;20039;-58
2022/05/05 10:21:44;;;;;;;4.22;3.83;;;20.60;41.10;;;;;;4946749;29;20439;-62
2022/05/05 10:24:22;;;;;;;2.85;2.38;;;20.70;41.10;;;;;;4949030;28;20051;-60
2022/05/05 10:26:52;;;;;;;3.65;3.30;;;20.60;41.10;;;;;;4946727;29;20043;-59
2022/05/05 10:29:41;;;;;;;5.03;3.95;;;20.70;41.00;;;;;;4948441;29;20130;-58
2022/05/05 10:32:16;;;;;;;6.20;3.70;;;20.60;40.50;;;;;;4947015;28;20098;-59
2022/05/05 10:34:51;;;;;;;4.63;3.90;;;20.60;40.80;;;;;;4947397;28;20632;-58
2022/05/05 10:37:20;;;;;;;5.15;3.38;;;20.60;40.40;;;;;;4946086;29;20079;-59
2022/05/05 10:40:01;;;;;;;3.15;2.80;;;20.60;40.30;;;;;;4947187;28;20496;-59
2022/05/05 10:42:29;;;;;;;4.70;3.90;;;20.60;40.50;;;;;;4962206;28;20099;-59
2022/05/05 10:45:21;;;;;;;4.38;2.83;;;20.60;40.30;;;;;;4947032;29;20113;-59
2022/05/05 10:47:57;;;;;;;6.00;3.05;;;20.60;40.50;;;;;;4942305;29;20138;-57
2022/05/05 10:50:39;;;;;;;3.13;2.78;;;20.60;40.50;;;;;;4946378;28;20043;-59
2022/05/05 10:53:23;;;;;;;6.15;3.30;;;20.60;40.60;;;;;;4947044;29;20399;-58
2022/05/05 10:55:49;;;;;;;4.22;2.78;;;20.60;40.80;;;;;;4946611;29;20113;-62
2022/05/05 10:58:59;;;;;;;5.57;2.90;;;20.60;40.80;;;;;;4943575;28;20051;-57
2022/05/05 11:01:26;;;;;;;3.10;2.17;;;20.60;40.80;;;;;;4934202;29;20320;-57
2022/05/05 11:04:15;;;;;;;4.57;2.40;;;20.60;40.90;;;;;;4946222;28;20043;-60
2022/05/05 11:06:42;;;;;;;4.53;3.13;;;20.60;41.00;;;;;;4947777;29;20876;-60
2022/05/05 11:09:08;;;;;;;4.45;3.03;;;20.60;41.10;;;;;;4945649;28;20116;-60
2022/05/05 11:11:40;;;;;;;2.28;2.05;;;20.60;41.00;;;;;;4945374;29;20055;-59
2022/05/05 11:22:56;;;;;;;3.63;2.50;;;20.60;40.90;;;;;;4941894;29;20055;-59
2022/05/05 11:25:22;;;;;;;2.30;2.08;;;20.70;41.00;;;;;;4941822;29;20039;-59
2022/05/05 11:27:54;;;;;;;4.38;2.63;;;20.70;41.00;;;;;;4941587;28;20039;-62
2022/05/05 11:30:20;;;;;;;3.35;2.03;;;20.70;41.10;;;;;;4944936;29;20086;-59
2022/05/05 11:32:46;;;;;;;4.55;2.00;;;20.70;41.10;;;;;;4944661;28;20086;-60
2022/05/05 11:35:12;;;;;;;4.68;2.08;;;20.70;41.20;;;;;;4947544;28;20079;-60
2022/05/05 11:37:42;;;;;;;4.50;2.40;;;20.70;41.20;;;;;;4946838;28;20051;-59
2022/05/05 11:40:08;;;;;;;3.40;2.00;;;20.70;41.20;;;;;;4945353;28;20043;-60
2022/05/05 11:44:14;;;;;;;3.67;2.08;;;20.70;41.20;;;;;;4945434;29;20039;-61
2022/05/05 11:45:19;;;;;;;2.72;2.10;;;20.70;41.30;;;;;;4944490;29;20128;-59
2022/05/05 11:47:45;;;;;;;5.28;2.40;;;20.70;41.40;;;;;;4945411;28;20051;-62
2022/05/05 11:50:11;;;;;;;4.68;2.17;;;20.70;42.20;;;;;;4946019;29;20074;-61
2022/05/05 11:52:36;;;;;;;4.55;2.47;;;20.70;41.70;;;;;;4946583;28;20054;-60
2022/05/05 11:55:05;;;;;;;3.92;2.20;;;20.70;41.80;;;;;;4946595;28;20043;-60
2022/05/05 11:57:32;;;;;;;8.10;2.70;;;20.70;41.80;;;;;;4946455;28;20043;-59
2022/05/05 12:02:41;;;;;;;3.22;2.20;;;20.80;41.90;;;;;;4947075;29;20059;-59
2022/05/05 12:05:08;;;;;;;4.15;1.98;;;20.70;41.80;;;;;;4944493;29;20044;-60
2022/05/05 12:07:34;;;;;;;2.65;2.17;;;20.70;41.80;;;;;;4952307;28;20039;-61
2022/05/05 12:10:05;;;;;;;2.90;1.90;;;20.80;41.90;;;;;;4945408;29;20050;-59
2022/05/05 12:12:31;;;;;;;4.95;2.05;;;20.80;42.00;;;;;;4945398;28;20058;-62
2022/05/05 12:14:59;;;;;;;4.10;2.10;;;20.70;41.90;;;;;;4945529;29;20051;-59
2022/05/05 12:17:32;;;;;;;2.10;1.90;;;20.70;41.90;;;;;;4946978;29;20392;-60
2022/05/05 12:20:07;;;;;;;3.60;2.10;;;20.80;42.00;;;;;;4946120;28;20035;-59
2022/05/05 12:22:38;;;;;;;2.55;2.10;;;20.80;42.00;;;;;;4945898;29;20047;-61
2022/05/05 12:25:17;;;;;;;1.98;1.80;;;20.80;42.00;;;;;;4945535;29;20040;-61
2022/05/05 12:27:44;;;;;;;3.13;2.00;;;20.80;42.00;;;;;;4945665;28;20035;-59
2022/05/05 12:30:14;;;;;;;2.00;1.80;;;20.80;42.10;;;;;;4945618;29;20061;-59
2022/05/05 12:32:50;;;;;;;2.20;2.00;;;20.80;42.00;;;;;;4946530;29;20130;-59
2022/05/05 12:35:17;;;;;;;2.33;2.00;;;20.80;42.00;;;;;;4945444;28;21070;-61
2022/05/05 12:37:46;;;;;;;2.92;2.00;;;20.80;42.10;;;;;;4945920;28;20142;-59
2022/05/05 12:40:15;;;;;;;2.67;1.92;;;20.80;42.10;;;;;;4943744;28;20062;-60
2022/05/05 12:42:48;;;;;;;2.45;2.25;;;20.80;42.10;;;;;;4945141;28;20411;-59
2022/05/05 12:45:16;;;;;;;2.05;1.85;;;20.80;42.10;;;;;;4944874;29;20047;-60
2022/05/05 12:47:44;;;;;;;3.17;2.45;;;20.80;42.10;;;;;;4946895;28;20073;-60
2022/05/05 12:50:40;;;;;;;4.57;2.38;;;20.80;42.10;;;;;;4945049;29;20078;-60
2022/05/05 13:01:24;;;;;;;3.58;1.95;;;20.80;42.10;;;;;;4945101;29;20447;-59
2022/05/05 13:03:54;;;;;;;1.85;1.73;;;20.80;42.10;;;;;;4944264;28;20427;-59
2022/05/05 13:06:23;;;;;;;3.17;2.05;;;20.80;42.20;;;;;;4945931;28;20046;-60
2022/05/05 13:08:50;;;;;;;4.55;2.25;;;20.80;42.20;;;;;;4945644;29;20039;-62
2022/05/05 13:11:17;;;;;;;2.33;1.92;;;20.90;42.30;;;;;;4943803;29;20043;-60
2022/05/05 13:13:46;;;;;;;3.67;2.00;;;20.90;42.30;;;;;;4944647;29;20047;-61
2022/05/05 13:16:13;;;;;;;2.45;2.08;;;20.90;42.30;;;;;;4945321;29;20043;-59
2022/05/05 13:18:38;;;;;;;3.53;2.47;;;20.90;42.30;;;;;;4946632;28;20118;-61
2022/05/05 13:21:04;;;;;;;2.60;2.40;;;20.90;42.30;;;;;;4944982;28;20177;-60
2022/05/05 13:23:30;;;;;;;2.78;2.10;;;20.90;42.20;;;;;;4945359;28;20039;-60
2022/05/05 13:25:55;;;;;;;2.63;2.00;;;20.90;42.30;;;;;;4944008;28;20476;-59
2022/05/05 13:28:21;;;;;;;2.17;1.95;;;20.90;42.20;;;;;;4945818;28;20142;-59
2022/05/05 13:30:47;;;;;;;3.95;2.13;;;21.00;42.30;;;;;;4943635;28;20027;-59
2022/05/05 13:33:12;;;;;;;2.25;2.05;;;21.00;42.30;;;;;;4945575;28;20507;-59
2022/05/05 13:35:38;;;;;;;1.85;1.75;;;21.00;42.30;;;;;;4944990;28;20047;-60
2022/05/05 13:38:04;;;;;;;2.25;2.05;;;21.00;42.30;;;;;;4944236;28;20042;-59
2022/05/05 13:40:29;;;;;;;2.47;2.13;;;21.00;42.30;;;;;;4944991;28;20066;-60
2022/05/05 13:42:55;;;;;;;2.53;2.22;;;21.00;42.30;;;;;;4945204;29;20357;-60
2022/05/05 13:45:21;;;;;;;4.32;2.85;;;21.00;42.30;;;;;;4944547;29;20094;-59